Terminal Aerodrome Forecast
Issued by NWS

Home | Current Version | Previous Version | Text Only | Print | Product List | Glossary On
Versions: 1 2 3 4 5 6 7 8 9 10 11 12 13
000
FTUS46 KPDT 160500
TAFALW
TAF
KALW 160520Z 1606/1706 18008KT P6SM OVC150
     FM161200 23011KT P6SM OVC100
     FM161600 22011KT P6SM OVC050=

USA.gov is the U.S. government's official web portal to all federal, state and local government web resources and services.